KMSO/MSO METAR and TAF weather

Enter ICAO airport designator
Station Type Date Time Source
KMSO METAR 2020/04/04 10:53 UTC NOAA

KMSO 041053Z AUTO 32004KT 10SM OVC090 M02/M03 A2985 RMK AO2 SLP133 T10171033


Station Type Date Time Source
KMSO Decoded METAR 2020/04/04 10:53 UTC NOAA

MISSOULA INTERNATIONAL AIRPORT , MT, United States (KMSO) 46-55N 114-06W 975M
Apr 04, 2020 - 06:53 AM EDT / 2020.04.04 1053 UTC
Wind: from the NW (320 degrees) at 5 MPH (4 KT):0
Visibility: 10 mile(s):0
Sky conditions: overcast
Temperature: 28.9 F (-1.7 C)
Windchill: 23 F (-5 C):1
Dew Point: 26.1 F (-3.3 C)
Relative Humidity: 88%
Pressure (altimeter): 29.85 in. Hg (1010 hPa)
ob: KMSO 041053Z AUTO 32004KT 10SM OVC090 M02/M03 A2985 RMK AO2 SLP133 T10171033
cycle: 11

Station Type Date Time Source
KMSO TAF 2020/04/04 10:18 UTC NOAA

TAF
AMD KMSO 041017Z 0410/0506 00000KT P6SM BKN050
FM041200 00000KT 5SM BR BKN050
FM041600 VRB03KT P6SM BKN060

Example: see airport list